sensor_id;sensor_type;location;lat;lon;timestamp;P1;durP1;ratioP1;P2;durP2;ratioP2
84315;SDS011;74496;52.236;5.164;2024-02-21T00:01:21;13.38;;;2.50;;
84315;SDS011;74496;52.236;5.164;2024-02-21T00:03:48;14.50;;;2.15;;
84315;SDS011;74496;52.236;5.164;2024-02-21T00:06:15;13.23;;;2.53;;
84315;SDS011;74496;52.236;5.164;2024-02-21T00:08:42;17.45;;;3.42;;
84315;SDS011;74496;52.236;5.164;2024-02-21T00:11:10;14.47;;;2.50;;
84315;SDS011;74496;52.236;5.164;2024-02-21T00:13:37;17.30;;;3.20;;
84315;SDS011;74496;52.236;5.164;2024-02-21T00:16:03;10.77;;;2.33;;
84315;SDS011;74496;52.236;5.164;2024-02-21T00:18:30;11.82;;;3.00;;
84315;SDS011;74496;52.236;5.164;2024-02-21T00:20:57;13.13;;;2.53;;
84315;SDS011;74496;52.236;5.164;2024-02-21T00:23:24;18.93;;;3.20;;
84315;SDS011;74496;52.236;5.164;2024-02-21T00:25:50;21.42;;;3.40;;
84315;SDS011;74496;52.236;5.164;2024-02-21T00:28:18;12.68;;;2.80;;
84315;SDS011;74496;52.236;5.164;2024-02-21T00:30:46;13.18;;;2.83;;
84315;SDS011;74496;52.236;5.164;2024-02-21T00:33:15;18.42;;;3.60;;
84315;SDS011;74496;52.236;5.164;2024-02-21T00:35:42;9.37;;;2.80;;
84315;SDS011;74496;52.236;5.164;2024-02-21T00:38:09;15.60;;;3.08;;
84315;SDS011;74496;52.236;5.164;2024-02-21T00:40:36;15.38;;;3.22;;
84315;SDS011;74496;52.236;5.164;2024-02-21T00:43:02;20.27;;;3.28;;
84315;SDS011;74496;52.236;5.164;2024-02-21T00:45:30;21.02;;;3.45;;
84315;SDS011;74496;52.236;5.164;2024-02-21T00:47:58;11.80;;;2.97;;
84315;SDS011;74496;52.236;5.164;2024-02-21T00:50:24;20.23;;;3.22;;
84315;SDS011;74496;52.236;5.164;2024-02-21T00:52:51;15.05;;;3.03;;
84315;SDS011;74496;52.236;5.164;2024-02-21T00:55:18;14.68;;;3.00;;
84315;SDS011;74496;52.236;5.164;2024-02-21T00:57:44;11.77;;;2.65;;
84315;SDS011;74496;52.236;5.164;2024-02-21T01:00:12;17.73;;;3.20;;
84315;SDS011;74496;52.236;5.164;2024-02-21T01:02:40;19.35;;;2.97;;
84315;SDS011;74496;52.236;5.164;2024-02-21T01:05:07;16.38;;;3.38;;
84315;SDS011;74496;52.236;5.164;2024-02-21T01:07:34;12.70;;;2.28;;
84315;SDS011;74496;52.236;5.164;2024-02-21T01:10:00;16.90;;;3.22;;
84315;SDS011;74496;52.236;5.164;2024-02-21T01:12:27;14.73;;;3.03;;
84315;SDS011;74496;52.236;5.164;2024-02-21T01:14:54;8.27;;;2.20;;
84315;SDS011;74496;52.236;5.164;2024-02-21T01:17:21;15.30;;;2.63;;
84315;SDS011;74496;52.236;5.164;2024-02-21T01:19:49;19.17;;;3.55;;
84315;SDS011;74496;52.236;5.164;2024-02-21T01:22:15;9.93;;;2.50;;
84315;SDS011;74496;52.236;5.164;2024-02-21T01:24:43;13.13;;;2.67;;
84315;SDS011;74496;52.236;5.164;2024-02-21T01:27:09;12.85;;;2.78;;
84315;SDS011;74496;52.236;5.164;2024-02-21T01:29:36;17.40;;;2.60;;
84315;SDS011;74496;52.236;5.164;2024-02-21T01:32:03;12.88;;;2.33;;
84315;SDS011;74496;52.236;5.164;2024-02-21T01:34:30;16.65;;;2.50;;
84315;SDS011;74496;52.236;5.164;2024-02-21T01:36:58;58.60;;;3.70;;
84315;SDS011;74496;52.236;5.164;2024-02-21T01:39:29;17.48;;;3.17;;
84315;SDS011;74496;52.236;5.164;2024-02-21T01:41:56;11.93;;;2.42;;
84315;SDS011;74496;52.236;5.164;2024-02-21T01:44:23;18.00;;;3.72;;
84315;SDS011;74496;52.236;5.164;2024-02-21T01:46:50;18.13;;;2.60;;
84315;SDS011;74496;52.236;5.164;2024-02-21T01:49:17;22.77;;;3.33;;
84315;SDS011;74496;52.236;5.164;2024-02-21T01:51:45;14.20;;;2.63;;
84315;SDS011;74496;52.236;5.164;2024-02-21T01:54:13;13.07;;;2.38;;
84315;SDS011;74496;52.236;5.164;2024-02-21T01:56:42;21.38;;;3.22;;
84315;SDS011;74496;52.236;5.164;2024-02-21T01:59:09;16.10;;;3.13;;
84315;SDS011;74496;52.236;5.164;2024-02-21T02:01:36;19.90;;;2.93;;
84315;SDS011;74496;52.236;5.164;2024-02-21T02:04:04;16.45;;;3.33;;
84315;SDS011;74496;52.236;5.164;2024-02-21T02:06:30;14.95;;;2.30;;
84315;SDS011;74496;52.236;5.164;2024-02-21T02:08:57;12.88;;;2.20;;
84315;SDS011;74496;52.236;5.164;2024-02-21T02:11:25;14.57;;;2.60;;
84315;SDS011;74496;52.236;5.164;2024-02-21T02:13:52;19.47;;;3.33;;
84315;SDS011;74496;52.236;5.164;2024-02-21T02:16:19;15.38;;;2.83;;
84315;SDS011;74496;52.236;5.164;2024-02-21T02:18:46;20.30;;;3.08;;
84315;SDS011;74496;52.236;5.164;2024-02-21T02:21:13;15.40;;;2.42;;
84315;SDS011;74496;52.236;5.164;2024-02-21T02:23:50;11.90;;;2.50;;
84315;SDS011;74496;52.236;5.164;2024-02-21T02:26:17;15.73;;;3.37;;
84315;SDS011;74496;52.236;5.164;2024-02-21T02:34:10;18.05;;;2.90;;
84315;SDS011;74496;52.236;5.164;2024-02-21T02:36:36;14.82;;;2.80;;
84315;SDS011;74496;52.236;5.164;2024-02-21T02:39:04;14.87;;;2.77;;
84315;SDS011;74496;52.236;5.164;2024-02-21T02:41:34;13.10;;;2.90;;
84315;SDS011;74496;52.236;5.164;2024-02-21T02:44:01;14.70;;;2.78;;
84315;SDS011;74496;52.236;5.164;2024-02-21T02:46:27;13.40;;;2.90;;
84315;SDS011;74496;52.236;5.164;2024-02-21T02:48:54;12.57;;;2.50;;
84315;SDS011;74496;52.236;5.164;2024-02-21T02:51:21;17.50;;;3.13;;
84315;SDS011;74496;52.236;5.164;2024-02-21T02:53:47;18.33;;;3.15;;
84315;SDS011;74496;52.236;5.164;2024-02-21T02:56:16;13.32;;;2.67;;
84315;SDS011;74496;52.236;5.164;2024-02-21T02:58:42;12.15;;;2.38;;
84315;SDS011;74496;52.236;5.164;2024-02-21T03:01:09;24.95;;;2.40;;
84315;SDS011;74496;52.236;5.164;2024-02-21T03:03:36;20.47;;;2.67;;
84315;SDS011;74496;52.236;5.164;2024-02-21T03:06:03;21.33;;;2.88;;
84315;SDS011;74496;52.236;5.164;2024-02-21T03:08:30;16.20;;;2.90;;
84315;SDS011;74496;52.236;5.164;2024-02-21T03:10:57;15.75;;;2.35;;
84315;SDS011;74496;52.236;5.164;2024-02-21T03:13:26;10.15;;;2.08;;
84315;SDS011;74496;52.236;5.164;2024-02-21T03:15:52;20.10;;;3.00;;
84315;SDS011;74496;52.236;5.164;2024-02-21T03:18:19;21.98;;;3.33;;
84315;SDS011;74496;52.236;5.164;2024-02-21T03:20:46;17.20;;;3.13;;
84315;SDS011;74496;52.236;5.164;2024-02-21T03:23:12;14.90;;;2.80;;
84315;SDS011;74496;52.236;5.164;2024-02-21T03:25:39;8.63;;;2.60;;
84315;SDS011;74496;52.236;5.164;2024-02-21T03:28:06;14.20;;;2.43;;
84315;SDS011;74496;52.236;5.164;2024-02-21T03:30:34;18.55;;;3.30;;
84315;SDS011;74496;52.236;5.164;2024-02-21T03:33:01;13.38;;;2.65;;
84315;SDS011;74496;52.236;5.164;2024-02-21T03:41:37;13.43;;;3.57;;
84315;SDS011;74496;52.236;5.164;2024-02-21T03:44:03;20.58;;;2.85;;
84315;SDS011;74496;52.236;5.164;2024-02-21T03:46:31;17.40;;;3.10;;
84315;SDS011;74496;52.236;5.164;2024-02-21T03:48:58;22.48;;;3.20;;
84315;SDS011;74496;52.236;5.164;2024-02-21T03:51:26;21.83;;;3.00;;
84315;SDS011;74496;52.236;5.164;2024-02-21T03:53:52;16.20;;;3.27;;
84315;SDS011;74496;52.236;5.164;2024-02-21T03:56:19;10.73;;;2.47;;
84315;SDS011;74496;52.236;5.164;2024-02-21T03:58:46;17.63;;;3.40;;
84315;SDS011;74496;52.236;5.164;2024-02-21T04:01:14;13.73;;;3.17;;
84315;SDS011;74496;52.236;5.164;2024-02-21T04:03:43;12.65;;;2.30;;
84315;SDS011;74496;52.236;5.164;2024-02-21T04:06:10;16.47;;;2.93;;
84315;SDS011;74496;52.236;5.164;2024-02-21T04:08:37;10.40;;;3.10;;
84315;SDS011;74496;52.236;5.164;2024-02-21T04:11:04;20.30;;;3.53;;
84315;SDS011;74496;52.236;5.164;2024-02-21T04:13:30;16.17;;;3.13;;
84315;SDS011;74496;52.236;5.164;2024-02-21T04:15:57;10.43;;;2.55;;
84315;SDS011;74496;52.236;5.164;2024-02-21T04:18:24;12.63;;;3.13;;
84315;SDS011;74496;52.236;5.164;2024-02-21T04:20:52;15.38;;;3.17;;
84315;SDS011;74496;52.236;5.164;2024-02-21T04:23:18;13.52;;;3.13;;
84315;SDS011;74496;52.236;5.164;2024-02-21T04:25:45;17.20;;;3.80;;
84315;SDS011;74496;52.236;5.164;2024-02-21T04:28:11;21.02;;;3.35;;
84315;SDS011;74496;52.236;5.164;2024-02-21T04:30:38;14.53;;;3.00;;
84315;SDS011;74496;52.236;5.164;2024-02-21T04:33:05;14.63;;;3.53;;
84315;SDS011;74496;52.236;5.164;2024-02-21T04:35:31;10.55;;;4.10;;
84315;SDS011;74496;52.236;5.164;2024-02-21T04:37:59;13.57;;;4.20;;
84315;SDS011;74496;52.236;5.164;2024-02-21T04:40:26;10.82;;;3.67;;
84315;SDS011;74496;52.236;5.164;2024-02-21T04:42:53;11.93;;;3.73;;
84315;SDS011;74496;52.236;5.164;2024-02-21T04:45:20;11.82;;;4.47;;
84315;SDS011;74496;52.236;5.164;2024-02-21T04:47:47;14.15;;;4.13;;
84315;SDS011;74496;52.236;5.164;2024-02-21T04:50:13;11.18;;;4.00;;
84315;SDS011;74496;52.236;5.164;2024-02-21T04:52:40;11.07;;;3.83;;
84315;SDS011;74496;52.236;5.164;2024-02-21T04:55:09;9.60;;;3.70;;
84315;SDS011;74496;52.236;5.164;2024-02-21T04:57:35;9.88;;;3.88;;
84315;SDS011;74496;52.236;5.164;2024-02-21T05:00:02;12.40;;;3.92;;
84315;SDS011;74496;52.236;5.164;2024-02-21T05:02:29;5.53;;;3.67;;
84315;SDS011;74496;52.236;5.164;2024-02-21T05:04:56;18.40;;;4.93;;
84315;SDS011;74496;52.236;5.164;2024-02-21T05:07:23;11.53;;;4.80;;
84315;SDS011;74496;52.236;5.164;2024-02-21T05:09:49;11.55;;;5.35;;
84315;SDS011;74496;52.236;5.164;2024-02-21T05:12:17;9.70;;;4.60;;
84315;SDS011;74496;52.236;5.164;2024-02-21T05:14:45;7.65;;;4.60;;
84315;SDS011;74496;52.236;5.164;2024-02-21T05:17:14;10.73;;;5.18;;
84315;SDS011;74496;52.236;5.164;2024-02-21T05:19:41;9.37;;;4.90;;
84315;SDS011;74496;52.236;5.164;2024-02-21T05:22:08;13.85;;;4.82;;
84315;SDS011;74496;52.236;5.164;2024-02-21T05:24:34;9.77;;;4.70;;
84315;SDS011;74496;52.236;5.164;2024-02-21T05:27:01;15.40;;;5.43;;
84315;SDS011;74496;52.236;5.164;2024-02-21T05:29:29;8.32;;;4.72;;
84315;SDS011;74496;52.236;5.164;2024-02-21T05:31:56;12.07;;;4.43;;
84315;SDS011;74496;52.236;5.164;2024-02-21T05:34:23;13.18;;;4.38;;
84315;SDS011;74496;52.236;5.164;2024-02-21T05:36:50;7.22;;;4.50;;
84315;SDS011;74496;52.236;5.164;2024-02-21T05:39:17;13.65;;;5.68;;
84315;SDS011;74496;52.236;5.164;2024-02-21T05:41:44;14.55;;;5.10;;
84315;SDS011;74496;52.236;5.164;2024-02-21T05:44:11;12.10;;;5.10;;
84315;SDS011;74496;52.236;5.164;2024-02-21T05:46:39;12.38;;;5.75;;
84315;SDS011;74496;52.236;5.164;2024-02-21T05:49:06;9.50;;;5.10;;
84315;SDS011;74496;52.236;5.164;2024-02-21T05:51:33;11.02;;;4.80;;
84315;SDS011;74496;52.236;5.164;2024-02-21T05:53:59;8.77;;;5.43;;
84315;SDS011;74496;52.236;5.164;2024-02-21T05:56:26;10.37;;;5.10;;
84315;SDS011;74496;52.236;5.164;2024-02-21T05:58:53;12.77;;;6.07;;
84315;SDS011;74496;52.236;5.164;2024-02-21T06:01:20;8.38;;;5.63;;
84315;SDS011;74496;52.236;5.164;2024-02-21T06:03:48;9.50;;;5.45;;
84315;SDS011;74496;52.236;5.164;2024-02-21T06:06:15;6.15;;;5.45;;
84315;SDS011;74496;52.236;5.164;2024-02-21T06:08:42;11.13;;;5.10;;
84315;SDS011;74496;52.236;5.164;2024-02-21T06:11:08;11.13;;;5.15;;
84315;SDS011;74496;52.236;5.164;2024-02-21T06:13:37;12.45;;;5.55;;
84315;SDS011;74496;52.236;5.164;2024-02-21T06:16:06;7.28;;;6.40;;
84315;SDS011;74496;52.236;5.164;2024-02-21T06:18:34;9.30;;;7.00;;
84315;SDS011;74496;52.236;5.164;2024-02-21T06:21:06;8.17;;;6.70;;
84315;SDS011;74496;52.236;5.164;2024-02-21T06:23:33;15.52;;;6.82;;
84315;SDS011;74496;52.236;5.164;2024-02-21T06:26:00;7.80;;;5.80;;
84315;SDS011;74496;52.236;5.164;2024-02-21T06:28:27;11.80;;;6.68;;
84315;SDS011;74496;52.236;5.164;2024-02-21T06:30:53;8.80;;;6.07;;
84315;SDS011;74496;52.236;5.164;2024-02-21T06:33:20;13.13;;;5.90;;
84315;SDS011;74496;52.236;5.164;2024-02-21T06:35:50;8.48;;;5.47;;
84315;SDS011;74496;52.236;5.164;2024-02-21T06:38:19;11.45;;;5.43;;
84315;SDS011;74496;52.236;5.164;2024-02-21T06:40:46;9.25;;;6.15;;
84315;SDS011;74496;52.236;5.164;2024-02-21T06:43:17;8.90;;;6.45;;
84315;SDS011;74496;52.236;5.164;2024-02-21T06:45:45;15.17;;;6.67;;
84315;SDS011;74496;52.236;5.164;2024-02-21T06:48:16;12.52;;;6.07;;
84315;SDS011;74496;52.236;5.164;2024-02-21T06:50:43;11.93;;;6.97;;
84315;SDS011;74496;52.236;5.164;2024-02-21T06:53:09;14.38;;;6.57;;
84315;SDS011;74496;52.236;5.164;2024-02-21T06:55:38;15.68;;;7.40;;
84315;SDS011;74496;52.236;5.164;2024-02-21T06:58:04;10.83;;;6.53;;
84315;SDS011;74496;52.236;5.164;2024-02-21T07:00:33;16.88;;;7.22;;
84315;SDS011;74496;52.236;5.164;2024-02-21T07:03:00;12.23;;;6.82;;
84315;SDS011;74496;52.236;5.164;2024-02-21T07:05:27;13.43;;;6.82;;
84315;SDS011;74496;52.236;5.164;2024-02-21T07:07:54;12.80;;;6.07;;
84315;SDS011;74496;52.236;5.164;2024-02-21T07:10:21;16.20;;;7.43;;
84315;SDS011;74496;52.236;5.164;2024-02-21T07:12:49;13.50;;;6.97;;
84315;SDS011;74496;52.236;5.164;2024-02-21T07:15:17;13.57;;;6.55;;
84315;SDS011;74496;52.236;5.164;2024-02-21T07:17:44;11.57;;;6.05;;
84315;SDS011;74496;52.236;5.164;2024-02-21T07:20:12;14.48;;;7.47;;
84315;SDS011;74496;52.236;5.164;2024-02-21T07:22:38;13.33;;;6.10;;
84315;SDS011;74496;52.236;5.164;2024-02-21T07:25:05;14.40;;;7.50;;
84315;SDS011;74496;52.236;5.164;2024-02-21T07:27:33;14.85;;;6.88;;
84315;SDS011;74496;52.236;5.164;2024-02-21T07:30:01;15.75;;;7.20;;
84315;SDS011;74496;52.236;5.164;2024-02-21T07:32:27;17.77;;;7.60;;
84315;SDS011;74496;52.236;5.164;2024-02-21T07:34:55;16.30;;;7.27;;
84315;SDS011;74496;52.236;5.164;2024-02-21T07:37:21;20.65;;;7.53;;
84315;SDS011;74496;52.236;5.164;2024-02-21T07:39:48;18.10;;;7.55;;
84315;SDS011;74496;52.236;5.164;2024-02-21T07:42:15;9.35;;;5.90;;
84315;SDS011;74496;52.236;5.164;2024-02-21T07:44:41;12.45;;;7.28;;
84315;SDS011;74496;52.236;5.164;2024-02-21T07:47:10;19.57;;;8.20;;
84315;SDS011;74496;52.236;5.164;2024-02-21T07:49:40;18.38;;;8.23;;
84315;SDS011;74496;52.236;5.164;2024-02-21T07:52:08;18.85;;;8.23;;
84315;SDS011;74496;52.236;5.164;2024-02-21T07:54:35;14.90;;;7.03;;
84315;SDS011;74496;52.236;5.164;2024-02-21T07:57:01;18.25;;;8.07;;
84315;SDS011;74496;52.236;5.164;2024-02-21T07:59:29;14.67;;;7.67;;
84315;SDS011;74496;52.236;5.164;2024-02-21T08:01:56;12.07;;;6.45;;
84315;SDS011;74496;52.236;5.164;2024-02-21T08:04:24;18.90;;;7.93;;
84315;SDS011;74496;52.236;5.164;2024-02-21T08:06:51;19.98;;;8.38;;
84315;SDS011;74496;52.236;5.164;2024-02-21T08:09:20;15.75;;;7.75;;
84315;SDS011;74496;52.236;5.164;2024-02-21T08:11:48;22.47;;;8.27;;
84315;SDS011;74496;52.236;5.164;2024-02-21T08:14:15;16.27;;;7.22;;
84315;SDS011;74496;52.236;5.164;2024-02-21T08:16:42;17.23;;;8.45;;
84315;SDS011;74496;52.236;5.164;2024-02-21T08:19:09;13.95;;;7.40;;
84315;SDS011;74496;52.236;5.164;2024-02-21T08:21:38;18.80;;;8.27;;
84315;SDS011;74496;52.236;5.164;2024-02-21T08:24:04;18.53;;;7.13;;
84315;SDS011;74496;52.236;5.164;2024-02-21T08:26:31;16.42;;;8.63;;
84315;SDS011;74496;52.236;5.164;2024-02-21T08:28:58;21.05;;;7.45;;
84315;SDS011;74496;52.236;5.164;2024-02-21T08:31:25;13.63;;;8.10;;
84315;SDS011;74496;52.236;5.164;2024-02-21T08:33:56;14.05;;;8.43;;
84315;SDS011;74496;52.236;5.164;2024-02-21T08:36:27;15.87;;;8.50;;
84315;SDS011;74496;52.236;5.164;2024-02-21T08:38:56;18.45;;;9.82;;
84315;SDS011;74496;52.236;5.164;2024-02-21T08:41:23;12.07;;;7.15;;
84315;SDS011;74496;52.236;5.164;2024-02-21T08:43:50;16.17;;;8.65;;
84315;SDS011;74496;52.236;5.164;2024-02-21T08:46:17;11.10;;;7.30;;
84315;SDS011;74496;52.236;5.164;2024-02-21T08:48:44;16.70;;;8.87;;
84315;SDS011;74496;52.236;5.164;2024-02-21T08:51:11;13.90;;;7.90;;
84315;SDS011;74496;52.236;5.164;2024-02-21T08:53:38;16.83;;;8.45;;
84315;SDS011;74496;52.236;5.164;2024-02-21T08:56:06;19.75;;;8.25;;
84315;SDS011;74496;52.236;5.164;2024-02-21T08:58:34;16.20;;;9.40;;
84315;SDS011;74496;52.236;5.164;2024-02-21T09:01:02;15.70;;;9.13;;
84315;SDS011;74496;52.236;5.164;2024-02-21T09:03:30;14.57;;;8.48;;
84315;SDS011;74496;52.236;5.164;2024-02-21T09:05:57;19.23;;;10.27;;
84315;SDS011;74496;52.236;5.164;2024-02-21T09:08:24;16.20;;;9.38;;
84315;SDS011;74496;52.236;5.164;2024-02-21T09:10:51;19.27;;;9.00;;
84315;SDS011;74496;52.236;5.164;2024-02-21T09:13:19;18.37;;;10.67;;
84315;SDS011;74496;52.236;5.164;2024-02-21T09:15:46;19.27;;;10.73;;
84315;SDS011;74496;52.236;5.164;2024-02-21T09:18:13;14.52;;;9.02;;
84315;SDS011;74496;52.236;5.164;2024-02-21T09:20:40;14.48;;;10.32;;
84315;SDS011;74496;52.236;5.164;2024-02-21T09:23:07;16.85;;;10.73;;
84315;SDS011;74496;52.236;5.164;2024-02-21T09:25:33;15.37;;;9.77;;
84315;SDS011;74496;52.236;5.164;2024-02-21T09:28:01;15.55;;;8.88;;
84315;SDS011;74496;52.236;5.164;2024-02-21T09:30:30;17.27;;;9.45;;
84315;SDS011;74496;52.236;5.164;2024-02-21T09:32:57;13.23;;;9.00;;
84315;SDS011;74496;52.236;5.164;2024-02-21T09:35:25;13.70;;;9.57;;
84315;SDS011;74496;52.236;5.164;2024-02-21T09:37:53;14.73;;;9.53;;
84315;SDS011;74496;52.236;5.164;2024-02-21T09:40:19;19.98;;;8.63;;
84315;SDS011;74496;52.236;5.164;2024-02-21T09:42:46;15.32;;;8.55;;
84315;SDS011;74496;52.236;5.164;2024-02-21T09:45:15;15.88;;;9.23;;
84315;SDS011;74496;52.236;5.164;2024-02-21T09:47:53;18.02;;;9.32;;
84315;SDS011;74496;52.236;5.164;2024-02-21T09:50:33;16.37;;;8.87;;
84315;SDS011;74496;52.236;5.164;2024-02-21T09:53:01;15.20;;;8.45;;
84315;SDS011;74496;52.236;5.164;2024-02-21T09:55:32;12.77;;;7.65;;
84315;SDS011;74496;52.236;5.164;2024-02-21T09:58:00;15.10;;;8.07;;
84315;SDS011;74496;52.236;5.164;2024-02-21T10:00:28;22.98;;;8.38;;
84315;SDS011;74496;52.236;5.164;2024-02-21T10:02:56;13.13;;;6.30;;
84315;SDS011;74496;52.236;5.164;2024-02-21T10:05:24;12.82;;;7.60;;
84315;SDS011;74496;52.236;5.164;2024-02-21T10:07:52;9.77;;;7.78;;
84315;SDS011;74496;52.236;5.164;2024-02-21T10:10:19;12.73;;;7.63;;
84315;SDS011;74496;52.236;5.164;2024-02-21T10:12:47;12.50;;;7.15;;
84315;SDS011;74496;52.236;5.164;2024-02-21T10:15:19;15.57;;;6.80;;
84315;SDS011;74496;52.236;5.164;2024-02-21T10:17:46;10.57;;;6.22;;
84315;SDS011;74496;52.236;5.164;2024-02-21T10:20:15;13.45;;;6.07;;
84315;SDS011;74496;52.236;5.164;2024-02-21T10:22:41;9.75;;;6.10;;
84315;SDS011;74496;52.236;5.164;2024-02-21T10:25:08;17.58;;;6.60;;
84315;SDS011;74496;52.236;5.164;2024-02-21T10:27:36;10.27;;;6.23;;
84315;SDS011;74496;52.236;5.164;2024-02-21T10:30:03;14.32;;;5.78;;
84315;SDS011;74496;52.236;5.164;2024-02-21T10:32:30;9.60;;;5.43;;
84315;SDS011;74496;52.236;5.164;2024-02-21T10:35:01;13.02;;;5.10;;
84315;SDS011;74496;52.236;5.164;2024-02-21T10:37:31;12.52;;;6.00;;
84315;SDS011;74496;52.236;5.164;2024-02-21T10:39:57;9.07;;;6.07;;
84315;SDS011;74496;52.236;5.164;2024-02-21T10:42:26;9.00;;;5.60;;
84315;SDS011;74496;52.236;5.164;2024-02-21T10:44:58;6.85;;;5.05;;
84315;SDS011;74496;52.236;5.164;2024-02-21T10:47:29;8.38;;;4.90;;
84315;SDS011;74496;52.236;5.164;2024-02-21T10:50:02;13.85;;;5.35;;
84315;SDS011;74496;52.236;5.164;2024-02-21T10:52:36;7.80;;;5.50;;
84315;SDS011;74496;52.236;5.164;2024-02-21T10:55:15;10.35;;;5.00;;
84315;SDS011;74496;52.236;5.164;2024-02-21T10:57:46;9.55;;;5.00;;
84315;SDS011;74496;52.236;5.164;2024-02-21T11:00:14;11.00;;;4.82;;
84315;SDS011;74496;52.236;5.164;2024-02-21T11:02:44;6.38;;;4.70;;
84315;SDS011;74496;52.236;5.164;2024-02-21T11:05:11;9.90;;;5.53;;
84315;SDS011;74496;52.236;5.164;2024-02-21T11:07:41;5.95;;;4.07;;
84315;SDS011;74496;52.236;5.164;2024-02-21T11:10:19;7.05;;;4.65;;
84315;SDS011;74496;52.236;5.164;2024-02-21T11:12:47;8.27;;;4.82;;
84315;SDS011;74496;52.236;5.164;2024-02-21T11:15:14;8.05;;;4.53;;
84315;SDS011;74496;52.236;5.164;2024-02-21T11:17:41;5.40;;;4.27;;
84315;SDS011;74496;52.236;5.164;2024-02-21T11:20:12;5.78;;;4.38;;
84315;SDS011;74496;52.236;5.164;2024-02-21T11:22:42;7.68;;;4.55;;
84315;SDS011;74496;52.236;5.164;2024-02-21T11:25:09;5.53;;;3.83;;
84315;SDS011;74496;52.236;5.164;2024-02-21T11:27:36;7.20;;;4.45;;
84315;SDS011;74496;52.236;5.164;2024-02-21T11:30:05;11.37;;;4.67;;
84315;SDS011;74496;52.236;5.164;2024-02-21T11:32:32;4.97;;;4.47;;
84315;SDS011;74496;52.236;5.164;2024-02-21T11:34:59;5.43;;;3.83;;
84315;SDS011;74496;52.236;5.164;2024-02-21T11:37:29;11.00;;;5.10;;
84315;SDS011;74496;52.236;5.164;2024-02-21T11:40:00;7.13;;;4.47;;
84315;SDS011;74496;52.236;5.164;2024-02-21T11:42:28;4.97;;;4.47;;
84315;SDS011;74496;52.236;5.164;2024-02-21T11:44:56;16.83;;;5.63;;
84315;SDS011;74496;52.236;5.164;2024-02-21T11:47:23;5.78;;;5.05;;
84315;SDS011;74496;52.236;5.164;2024-02-21T11:49:50;6.55;;;4.53;;
84315;SDS011;74496;52.236;5.164;2024-02-21T11:52:19;9.75;;;5.32;;
84315;SDS011;74496;52.236;5.164;2024-02-21T11:54:50;7.50;;;4.90;;
84315;SDS011;74496;52.236;5.164;2024-02-21T11:57:18;5.85;;;5.25;;
84315;SDS011;74496;52.236;5.164;2024-02-21T11:59:45;5.68;;;5.13;;
84315;SDS011;74496;52.236;5.164;2024-02-21T12:02:13;5.90;;;4.97;;
84315;SDS011;74496;52.236;5.164;2024-02-21T12:04:40;10.30;;;5.45;;
84315;SDS011;74496;52.236;5.164;2024-02-21T12:07:08;8.23;;;5.40;;
84315;SDS011;74496;52.236;5.164;2024-02-21T12:09:35;4.72;;;4.28;;
84315;SDS011;74496;52.236;5.164;2024-02-21T12:12:02;3.90;;;3.53;;
84315;SDS011;74496;52.236;5.164;2024-02-21T12:14:31;7.47;;;5.05;;
84315;SDS011;74496;52.236;5.164;2024-02-21T12:17:01;4.88;;;4.43;;
84315;SDS011;74496;52.236;5.164;2024-02-21T12:19:29;8.87;;;5.03;;
84315;SDS011;74496;52.236;5.164;2024-02-21T12:21:56;9.85;;;5.07;;
84315;SDS011;74496;52.236;5.164;2024-02-21T12:24:24;6.82;;;4.93;;
84315;SDS011;74496;52.236;5.164;2024-02-21T12:26:52;6.38;;;4.82;;
84315;SDS011;74496;52.236;5.164;2024-02-21T12:29:20;8.48;;;5.25;;
84315;SDS011;74496;52.236;5.164;2024-02-21T12:31:48;8.70;;;4.60;;
84315;SDS011;74496;52.236;5.164;2024-02-21T12:34:15;5.35;;;4.85;;
84315;SDS011;74496;52.236;5.164;2024-02-21T12:36:43;7.38;;;5.38;;
84315;SDS011;74496;52.236;5.164;2024-02-21T12:39:12;6.25;;;4.82;;
84315;SDS011;74496;52.236;5.164;2024-02-21T12:41:39;8.07;;;4.72;;
84315;SDS011;74496;52.236;5.164;2024-02-21T12:44:08;7.80;;;4.87;;
84315;SDS011;74496;52.236;5.164;2024-02-21T12:46:36;5.13;;;4.60;;
84315;SDS011;74496;52.236;5.164;2024-02-21T12:49:04;8.18;;;5.00;;
84315;SDS011;74496;52.236;5.164;2024-02-21T12:51:32;6.25;;;4.03;;
84315;SDS011;74496;52.236;5.164;2024-02-21T12:53:59;8.05;;;4.80;;
84315;SDS011;74496;52.236;5.164;2024-02-21T12:56:28;7.27;;;4.13;;
84315;SDS011;74496;52.236;5.164;2024-02-21T12:58:56;4.28;;;3.88;;
84315;SDS011;74496;52.236;5.164;2024-02-21T13:01:24;4.82;;;4.30;;
84315;SDS011;74496;52.236;5.164;2024-02-21T13:03:51;5.13;;;4.13;;
84315;SDS011;74496;52.236;5.164;2024-02-21T13:06:20;7.07;;;4.38;;
84315;SDS011;74496;52.236;5.164;2024-02-21T13:08:47;10.77;;;4.83;;
84315;SDS011;74496;52.236;5.164;2024-02-21T13:11:13;4.97;;;3.65;;
84315;SDS011;74496;52.236;5.164;2024-02-21T13:13:40;4.75;;;3.92;;
84315;SDS011;74496;52.236;5.164;2024-02-21T13:16:07;7.40;;;3.88;;
84315;SDS011;74496;52.236;5.164;2024-02-21T13:18:35;11.18;;;4.50;;
84315;SDS011;74496;52.236;5.164;2024-02-21T13:21:03;5.17;;;4.47;;
84315;SDS011;74496;52.236;5.164;2024-02-21T13:23:31;12.15;;;4.20;;
84315;SDS011;74496;52.236;5.164;2024-02-21T13:25:58;7.05;;;3.63;;
84315;SDS011;74496;52.236;5.164;2024-02-21T13:28:25;4.07;;;3.67;;
84315;SDS011;74496;52.236;5.164;2024-02-21T13:30:51;5.30;;;3.80;;
84315;SDS011;74496;52.236;5.164;2024-02-21T13:33:18;14.13;;;3.90;;
84315;SDS011;74496;52.236;5.164;2024-02-21T13:35:45;5.03;;;3.58;;
84315;SDS011;74496;52.236;5.164;2024-02-21T13:38:11;5.78;;;3.65;;
84315;SDS011;74496;52.236;5.164;2024-02-21T13:40:40;5.57;;;3.88;;
84315;SDS011;74496;52.236;5.164;2024-02-21T13:43:08;5.22;;;3.58;;
84315;SDS011;74496;52.236;5.164;2024-02-21T13:45:34;9.70;;;3.37;;
84315;SDS011;74496;52.236;5.164;2024-02-21T13:48:01;9.25;;;3.70;;
84315;SDS011;74496;52.236;5.164;2024-02-21T13:50:31;5.45;;;3.75;;
84315;SDS011;74496;52.236;5.164;2024-02-21T13:52:59;13.73;;;3.65;;
84315;SDS011;74496;52.236;5.164;2024-02-21T13:55:26;6.47;;;3.55;;
84315;SDS011;74496;52.236;5.164;2024-02-21T13:57:54;10.17;;;3.23;;
84315;SDS011;74496;52.236;5.164;2024-02-21T14:00:21;5.25;;;3.63;;
84315;SDS011;74496;52.236;5.164;2024-02-21T14:02:47;6.85;;;3.03;;
84315;SDS011;74496;52.236;5.164;2024-02-21T14:05:14;9.70;;;3.40;;
84315;SDS011;74496;52.236;5.164;2024-02-21T14:07:41;8.45;;;3.65;;
84315;SDS011;74496;52.236;5.164;2024-02-21T14:10:08;6.63;;;3.60;;
84315;SDS011;74496;52.236;5.164;2024-02-21T14:12:35;9.48;;;3.72;;
84315;SDS011;74496;52.236;5.164;2024-02-21T14:15:04;6.32;;;3.33;;
84315;SDS011;74496;52.236;5.164;2024-02-21T14:17:31;7.95;;;3.60;;
84315;SDS011;74496;52.236;5.164;2024-02-21T14:19:58;5.80;;;3.63;;
84315;SDS011;74496;52.236;5.164;2024-02-21T14:22:25;11.37;;;3.90;;
84315;SDS011;74496;52.236;5.164;2024-02-21T14:24:51;8.70;;;3.47;;
84315;SDS011;74496;52.236;5.164;2024-02-21T14:27:18;13.13;;;3.90;;
84315;SDS011;74496;52.236;5.164;2024-02-21T14:29:45;9.40;;;4.03;;
84315;SDS011;74496;52.236;5.164;2024-02-21T14:32:13;5.68;;;3.97;;
84315;SDS011;74496;52.236;5.164;2024-02-21T14:34:40;8.57;;;3.67;;
84315;SDS011;74496;52.236;5.164;2024-02-21T14:37:06;12.65;;;3.78;;
84315;SDS011;74496;52.236;5.164;2024-02-21T14:39:33;5.97;;;3.40;;
84315;SDS011;74496;52.236;5.164;2024-02-21T14:42:00;8.43;;;3.80;;
84315;SDS011;74496;52.236;5.164;2024-02-21T14:44:28;7.88;;;3.60;;
84315;SDS011;74496;52.236;5.164;2024-02-21T14:46:54;5.20;;;3.30;;
84315;SDS011;74496;52.236;5.164;2024-02-21T14:49:22;10.90;;;3.80;;
84315;SDS011;74496;52.236;5.164;2024-02-21T14:51:50;8.98;;;3.70;;